TAF

Looking Back 6 Hours

Worst Weather Category
LocationTimeVisiblityCeilingWeatherWind SpeedWind Gust
KPBF250520Z6NONENONE ENE 6NA NA

  • TAFPBF TAF KPBF 250520Z 2506/2606 36003KT P6SM SKC
          FM251400 06006KT P6SM SCT100 SCT250
          FM252300 VRB04KT P6SM SCT250 =